Time;durP1;ratioP1;P1;durP2;ratioP2;P2;SDS_P1;SDS_P2;PMS_P1;PMS_P2;Temp;Humidity;BMP_temperature;BMP_pressure;BME280_temperature;BME280_humidity;BME280_pressure;Samples;Min_cycle;Max_cycle;Signal;HPM_P1;HPM_P2
2023/05/22 00:01:42;;;;;;;34.97;25.20;;;13.90;99.90;;;;;;4935272;29;20215;-82
2023/05/22 00:04:07;;;;;;;39.57;24.17;;;14.00;99.90;;;;;;4939328;29;20189;-83
2023/05/22 00:06:33;;;;;;;34.17;24.70;;;13.90;99.90;;;;;;4943766;29;20192;-83
2023/05/22 00:08:59;;;;;;;40.27;25.57;;;13.80;99.90;;;;;;4957628;29;20173;-83
2023/05/22 00:11:25;;;;;;;35.80;26.00;;;13.80;99.90;;;;;;4951447;29;20219;-82
2023/05/22 00:13:52;;;;;;;39.40;28.30;;;13.90;99.90;;;;;;4943063;29;20244;-82
2023/05/22 00:16:20;;;;;;;37.67;28.80;;;14.00;99.90;;;;;;4941142;29;20250;-83
2023/05/22 00:18:48;;;;;;;38.27;27.10;;;14.00;99.90;;;;;;4941862;29;20181;-81
2023/05/22 00:21:15;;;;;;;40.87;28.47;;;14.00;99.90;;;;;;4937935;29;20173;-81
2023/05/22 00:23:41;;;;;;;43.57;29.50;;;14.00;99.90;;;;;;4948238;29;20236;-82
2023/05/22 00:26:07;;;;;;;37.33;28.60;;;14.10;99.90;;;;;;4947146;29;20244;-82
2023/05/22 00:28:32;;;;;;;35.57;27.80;;;13.90;99.90;;;;;;4950249;29;20253;-82
2023/05/22 00:30:58;;;;;;;45.07;29.10;;;13.80;99.90;;;;;;4943717;29;20219;-82
2023/05/22 00:33:24;;;;;;;44.00;29.47;;;13.80;99.90;;;;;;4946127;29;20594;-83
2023/05/22 00:35:50;;;;;;;40.17;26.77;;;13.80;99.90;;;;;;4946751;29;20188;-81
2023/05/22 00:38:35;;;;;;;37.23;28.00;;;13.80;99.90;;;;;;4945967;29;20206;-81
2023/05/22 00:41:02;;;;;;;38.30;27.87;;;13.80;99.90;;;;;;4942987;29;20184;-82
2023/05/22 00:43:28;;;;;;;39.00;27.43;;;13.80;99.90;;;;;;4940022;29;20169;-80
2023/05/22 00:45:55;;;;;;;37.37;27.00;;;13.80;99.90;;;;;;4941251;29;20187;-81
2023/05/22 00:48:21;;;;;;;38.43;26.97;;;13.80;99.90;;;;;;4939377;29;20203;-81
2023/05/22 00:50:48;;;;;;;33.60;25.87;;;13.90;99.90;;;;;;4938042;29;20670;-81
2023/05/22 00:53:18;;;;;;;35.90;26.67;;;14.00;99.90;;;;;;4938169;29;20180;-81
2023/05/22 00:55:44;;;;;;;37.77;25.80;;;13.90;99.90;;;;;;4938477;29;20184;-83
2023/05/22 00:58:14;;;;;;;38.07;26.03;;;13.80;99.90;;;;;;4937925;29;20665;-81
2023/05/22 01:00:41;;;;;;;36.23;24.00;;;13.80;99.90;;;;;;4937659;29;20177;-81
2023/05/22 01:03:08;;;;;;;36.07;24.70;;;13.90;99.90;;;;;;4937676;29;20257;-82
2023/05/22 01:05:35;;;;;;;35.87;25.50;;;13.80;99.90;;;;;;4939012;29;20266;-83
2023/05/22 01:08:01;;;;;;;33.70;25.10;;;13.80;99.90;;;;;;4937578;29;20555;-81
2023/05/22 01:10:29;;;;;;;33.60;25.03;;;13.80;99.90;;;;;;4939006;29;20292;-82
2023/05/22 01:13:02;;;;;;;35.33;24.93;;;14.00;99.90;;;;;;4937594;29;20679;-82
2023/05/22 01:15:33;;;;;;;32.40;24.33;;;14.10;99.90;;;;;;4938813;29;20686;-81
2023/05/22 01:18:30;;;;;;;32.57;23.33;;;14.10;99.90;;;;;;4937657;29;20173;-81
2023/05/22 01:21:03;;;;;;;31.23;24.20;;;14.30;99.90;;;;;;4938829;29;20224;-80
2023/05/22 01:24:10;;;;;;;30.40;23.80;;;14.30;99.90;;;;;;4938598;29;20176;-81
2023/05/22 01:27:18;;;;;;;33.53;24.90;;;14.20;99.90;;;;;;4923285;29;20282;-82
2023/05/22 01:29:53;;;;;;;34.30;24.97;;;14.00;99.90;;;;;;4911010;29;20227;-82
2023/05/22 01:32:24;;;;;;;38.10;25.67;;;14.20;99.90;;;;;;4960720;28;20161;-80
2023/05/22 01:34:58;;;;;;;40.43;28.63;;;14.00;99.90;;;;;;4958112;28;20184;-81
2023/05/22 01:37:24;;;;;;;36.63;25.90;;;14.10;99.90;;;;;;4961072;28;20197;-81
2023/05/22 01:39:53;;;;;;;38.17;26.30;;;14.10;99.90;;;;;;4947304;29;20699;-83
2023/05/22 01:42:20;;;;;;;37.03;27.60;;;14.00;99.90;;;;;;4941348;29;20177;-82
2023/05/22 01:44:49;;;;;;;35.37;26.97;;;14.00;99.90;;;;;;4938882;29;20188;-82
2023/05/22 01:47:16;;;;;;;45.87;28.00;;;14.10;99.90;;;;;;4938566;29;20204;-81
2023/05/22 01:49:43;;;;;;;39.57;28.33;;;14.10;99.90;;;;;;4937039;29;20613;-81
2023/05/22 01:52:21;;;;;;;38.30;26.67;;;13.90;99.90;;;;;;4936480;29;20244;-81
2023/05/22 01:55:20;;;;;;;43.77;27.83;;;14.00;99.90;;;;;;4938150;29;20641;-82
2023/05/22 01:58:11;;;;;;;39.87;28.17;;;13.90;99.90;;;;;;4934135;29;20180;-82
2023/05/22 02:00:42;;;;;;;36.90;29.03;;;13.80;99.90;;;;;;4936822;29;20192;-82
2023/05/22 02:03:13;;;;;;;45.17;29.93;;;13.90;99.90;;;;;;4936675;29;20267;-81
2023/05/22 02:05:40;;;;;;;41.83;29.90;;;14.00;99.90;;;;;;4936629;29;20661;-80
2023/05/22 02:08:06;;;;;;;46.33;31.17;;;14.00;99.90;;;;;;4936549;29;20547;-81
2023/05/22 02:10:34;;;;;;;54.30;33.80;;;14.00;99.90;;;;;;4936797;29;20208;-81
2023/05/22 02:13:00;;;;;;;41.63;32.10;;;14.00;99.90;;;;;;4936662;29;20202;-82
2023/05/22 02:15:26;;;;;;;42.97;32.70;;;13.90;99.90;;;;;;4936863;29;20182;-81
2023/05/22 02:17:52;;;;;;;45.87;31.73;;;13.90;99.90;;;;;;4936180;29;20248;-81
2023/05/22 02:20:18;;;;;;;47.97;32.73;;;13.80;99.90;;;;;;4936542;29;20188;-81
2023/05/22 02:22:45;;;;;;;45.50;31.93;;;13.80;99.90;;;;;;4936302;29;20169;-81
2023/05/22 02:25:13;;;;;;;50.00;32.50;;;13.90;99.90;;;;;;4936361;29;20185;-82
2023/05/22 02:27:44;;;;;;;53.90;34.77;;;13.90;99.90;;;;;;4936020;29;20188;-82
2023/05/22 02:30:11;;;;;;;56.10;36.33;;;13.90;99.90;;;;;;4937244;29;20688;-81
2023/05/22 02:32:38;;;;;;;49.63;35.63;;;13.80;99.90;;;;;;4936808;29;20538;-82
2023/05/22 02:35:04;;;;;;;47.63;35.93;;;13.90;99.90;;;;;;4937439;29;20638;-81
2023/05/22 02:37:30;;;;;;;55.33;38.80;;;13.90;99.90;;;;;;4937586;29;20253;-82
2023/05/22 02:39:56;;;;;;;60.53;40.67;;;13.90;99.90;;;;;;4935968;29;20267;-82
2023/05/22 02:42:22;;;;;;;58.97;41.60;;;14.00;99.90;;;;;;4935911;29;20210;-82
2023/05/22 02:44:48;;;;;;;69.93;44.10;;;14.00;99.90;;;;;;4935813;29;20385;-81
2023/05/22 02:47:14;;;;;;;63.47;44.10;;;13.90;99.90;;;;;;4935859;29;20348;-81
2023/05/22 02:49:40;;;;;;;61.27;43.63;;;13.90;99.90;;;;;;4946283;28;20220;-80
2023/05/22 02:52:06;;;;;;;59.53;41.83;;;13.90;99.90;;;;;;4959308;28;20190;-81
2023/05/22 02:54:31;;;;;;;67.63;44.43;;;14.00;99.90;;;;;;4939357;29;20215;-80
2023/05/22 02:56:57;;;;;;;68.17;47.70;;;13.90;99.90;;;;;;4938127;29;20236;-81
2023/05/22 02:59:26;;;;;;;70.70;45.97;;;13.80;99.90;;;;;;4935832;29;20177;-81
2023/05/22 03:01:53;;;;;;;68.37;47.33;;;13.80;99.90;;;;;;4937086;29;20528;-81
2023/05/22 03:04:18;;;;;;;64.43;46.20;;;13.90;99.90;;;;;;4935786;29;20193;-81
2023/05/22 03:06:45;;;;;;;72.57;48.37;;;13.70;99.90;;;;;;4937093;29;20612;-81
2023/05/22 03:09:11;;;;;;;77.03;47.33;;;13.80;99.90;;;;;;4935870;29;20260;-80
2023/05/22 03:11:36;;;;;;;71.33;46.67;;;13.90;99.90;;;;;;4957144;28;20166;-80
2023/05/22 03:14:02;;;;;;;79.27;50.17;;;14.00;99.90;;;;;;4959215;28;20172;-80
2023/05/22 03:16:28;;;;;;;78.60;50.93;;;14.00;99.90;;;;;;4937588;29;20224;-81
2023/05/22 03:19:15;;;;;;;84.00;51.63;;;14.10;99.90;;;;;;4938174;29;20626;-80
2023/05/22 03:21:59;;;;;;;82.53;52.30;;;14.10;99.90;;;;;;4937122;29;20170;-81
2023/05/22 03:24:26;;;;;;;80.77;51.97;;;13.90;99.90;;;;;;4936417;29;20157;-80
2023/05/22 03:26:51;;;;;;;84.50;54.47;;;13.70;99.90;;;;;;4935309;29;20644;-81
2023/05/22 03:29:18;;;;;;;84.20;54.97;;;13.60;99.90;;;;;;4935438;29;20198;-81
2023/05/22 03:31:44;;;;;;;91.00;56.83;;;13.50;99.90;;;;;;4935503;29;20183;-81
2023/05/22 03:34:10;;;;;;;89.77;55.57;;;13.50;99.90;;;;;;4935212;29;20208;-82
2023/05/22 03:36:35;;;;;;;99.20;56.93;;;13.60;99.90;;;;;;4936455;29;20186;-82
2023/05/22 03:39:02;;;;;;;98.63;57.67;;;13.60;99.90;;;;;;4934687;29;20640;-82
2023/05/22 03:41:28;;;;;;;105.70;58.97;;;13.60;99.90;;;;;;4934849;29;20193;-82
2023/05/22 03:43:53;;;;;;;98.37;58.27;;;13.60;99.90;;;;;;4934981;29;20171;-82
2023/05/22 03:46:19;;;;;;;104.70;58.63;;;13.60;99.90;;;;;;4918839;29;20207;-82
2023/05/22 03:48:45;;;;;;;105.20;58.90;;;13.60;99.90;;;;;;4936034;29;20634;-82
2023/05/22 03:51:10;;;;;;;103.27;62.23;;;13.60;99.90;;;;;;4936122;29;20211;-81
2023/05/22 03:53:36;;;;;;;109.00;61.20;;;13.60;99.90;;;;;;4934522;29;20173;-82
2023/05/22 03:56:02;;;;;;;128.87;64.07;;;13.70;99.90;;;;;;4934604;29;20708;-82
2023/05/22 03:58:28;;;;;;;116.17;64.17;;;13.70;99.90;;;;;;4934841;29;20197;-82
2023/05/22 04:01:00;;;;;;;118.13;64.33;;;13.50;99.90;;;;;;4935967;29;20223;-81
2023/05/22 04:03:29;;;;;;;116.90;62.17;;;13.60;99.90;;;;;;4934987;29;20712;-81
2023/05/22 04:05:55;;;;;;;111.13;60.43;;;13.70;99.90;;;;;;4918912;29;20203;-81
2023/05/22 04:08:21;;;;;;;116.93;64.00;;;13.80;99.90;;;;;;4934553;29;20180;-83
2023/05/22 04:10:47;;;;;;;117.43;62.10;;;13.80;99.90;;;;;;4935927;29;20264;-82
2023/05/22 04:13:15;;;;;;;106.90;61.60;;;13.80;99.90;;;;;;4934807;29;20177;-82
2023/05/22 04:15:42;;;;;;;117.87;61.97;;;13.80;99.90;;;;;;4938937;29;20232;-81
2023/05/22 04:18:08;;;;;;;131.03;64.00;;;13.90;99.90;;;;;;4938222;29;20180;-81
2023/05/22 04:20:34;;;;;;;148.80;66.70;;;13.70;99.90;;;;;;4938628;29;20183;-81
2023/05/22 04:23:00;;;;;;;147.93;68.57;;;13.70;99.90;;;;;;4939463;29;20177;-81
2023/05/22 04:25:26;;;;;;;146.03;64.70;;;13.70;99.90;;;;;;4938339;29;20177;-81
2023/05/22 04:27:52;;;;;;;149.83;64.83;;;13.80;99.90;;;;;;4938606;29;20231;-81
2023/05/22 04:30:18;;;;;;;150.83;65.90;;;13.70;99.90;;;;;;4939748;29;20200;-80
2023/05/22 04:32:43;;;;;;;144.60;62.30;;;13.80;99.90;;;;;;4938358;29;20185;-82
2023/05/22 04:35:11;;;;;;;148.80;63.40;;;13.90;99.90;;;;;;4938225;29;20186;-83
2023/05/22 04:37:41;;;;;;;136.83;63.47;;;13.80;99.90;;;;;;4938560;29;20520;-83
2023/05/22 04:40:08;;;;;;;147.97;64.87;;;13.70;99.90;;;;;;4938642;29;20594;-82
2023/05/22 04:42:34;;;;;;;145.60;64.87;;;13.70;99.90;;;;;;4938696;29;20539;-83
2023/05/22 04:45:00;;;;;;;158.27;66.30;;;13.80;99.90;;;;;;4940850;29;20203;-82
2023/05/22 04:47:30;;;;;;;140.97;64.23;;;13.80;99.90;;;;;;4941488;29;20210;-83
2023/05/22 04:49:57;;;;;;;148.47;65.03;;;13.80;99.90;;;;;;4951904;28;20201;-81
2023/05/22 04:52:24;;;;;;;163.10;68.47;;;13.80;99.90;;;;;;4953981;29;20688;-81
2023/05/22 04:54:51;;;;;;;162.63;65.77;;;13.70;99.90;;;;;;4962909;28;20218;-82
2023/05/22 04:57:18;;;;;;;162.33;65.63;;;13.70;99.90;;;;;;4956743;28;20193;-81
2023/05/22 04:59:44;;;;;;;155.40;64.33;;;13.70;99.90;;;;;;4942040;29;20234;-82
2023/05/22 05:02:10;;;;;;;150.77;65.30;;;13.90;99.90;;;;;;4938529;29;20175;-81
2023/05/22 05:04:36;;;;;;;142.87;60.30;;;13.80;99.90;;;;;;4939106;29;20184;-82
2023/05/22 05:07:02;;;;;;;146.43;59.70;;;13.70;99.90;;;;;;4937196;29;20228;-82
2023/05/22 05:09:28;;;;;;;139.50;59.53;;;13.70;99.90;;;;;;4937465;29;20598;-82
2023/05/22 05:11:54;;;;;;;146.57;61.70;;;13.70;99.90;;;;;;4939352;29;20180;-83
2023/05/22 05:14:20;;;;;;;141.63;61.83;;;13.70;99.90;;;;;;4938006;29;20664;-82
2023/05/22 05:16:46;;;;;;;145.73;61.77;;;13.80;99.90;;;;;;4937602;29;20180;-83
2023/05/22 05:19:12;;;;;;;136.63;59.87;;;13.80;99.90;;;;;;4937323;29;20632;-81
2023/05/22 05:21:38;;;;;;;157.13;65.60;;;13.60;99.90;;;;;;4937001;29;20179;-84
2023/05/22 05:24:05;;;;;;;147.13;62.23;;;13.80;99.90;;;;;;4937307;29;20220;-83
2023/05/22 05:26:31;;;;;;;147.33;63.47;;;13.70;99.90;;;;;;4936899;29;20183;-83
2023/05/22 05:28:56;;;;;;;149.87;64.37;;;13.60;99.90;;;;;;4938659;29;20172;-84
2023/05/22 05:31:23;;;;;;;162.53;65.50;;;13.60;99.90;;;;;;4938772;29;20224;-82
2023/05/22 05:33:49;;;;;;;161.87;63.57;;;13.60;99.90;;;;;;4938125;29;20173;-82
2023/05/22 05:36:15;;;;;;;161.10;67.70;;;13.70;99.90;;;;;;4937212;29;20212;-83
2023/05/22 05:38:41;;;;;;;153.97;65.63;;;13.70;99.90;;;;;;4936613;29;20256;-83
2023/05/22 05:41:07;;;;;;;139.53;62.53;;;13.80;99.90;;;;;;4937194;29;20271;-84
2023/05/22 05:43:32;;;;;;;153.73;64.20;;;13.80;99.90;;;;;;4938845;29;20169;-83
2023/05/22 05:45:58;;;;;;;147.57;65.80;;;13.80;99.90;;;;;;4937708;29;20181;-83
2023/05/22 05:48:24;;;;;;;148.37;64.50;;;13.80;99.90;;;;;;4937946;29;20634;-82
2023/05/22 05:50:50;;;;;;;154.63;67.57;;;13.90;99.90;;;;;;4945359;29;20306;-81
2023/05/22 05:53:16;;;;;;;142.23;62.63;;;14.00;99.90;;;;;;4956223;29;20201;-82
2023/05/22 05:55:42;;;;;;;148.47;64.50;;;13.90;99.90;;;;;;4939145;29;20190;-83
2023/05/22 05:58:08;;;;;;;147.23;65.27;;;13.80;99.90;;;;;;4940955;29;20581;-82
2023/05/22 06:00:37;;;;;;;132.77;60.07;;;13.90;99.90;;;;;;4938456;29;20276;-82
2023/05/22 06:03:03;;;;;;;139.50;64.17;;;13.80;99.90;;;;;;4937068;29;20182;-83
2023/05/22 06:05:30;;;;;;;133.90;65.57;;;13.90;99.90;;;;;;4937003;29;20193;-82
2023/05/22 06:07:57;;;;;;;134.43;66.63;;;14.00;99.90;;;;;;4938137;29;20191;-81
2023/05/22 06:10:23;;;;;;;116.07;56.67;;;14.00;99.90;;;;;;4937540;29;20215;-82
2023/05/22 06:12:48;;;;;;;116.77;60.73;;;13.90;99.90;;;;;;4951397;28;20185;-82
2023/05/22 06:15:14;;;;;;;105.40;54.57;;;13.90;99.90;;;;;;4959893;28;20208;-83
2023/05/22 06:17:40;;;;;;;110.93;58.33;;;13.70;99.90;;;;;;4945701;29;20195;-81
2023/05/22 06:20:14;;;;;;;118.70;61.40;;;13.70;99.90;;;;;;4943220;29;20170;-82
2023/05/22 06:22:42;;;;;;;133.60;63.50;;;13.70;99.90;;;;;;4938768;29;20224;-84
2023/05/22 06:25:09;;;;;;;124.93;62.70;;;13.90;99.90;;;;;;4942202;29;20193;-82
2023/05/22 06:27:34;;;;;;;90.23;51.10;;;14.00;99.90;;;;;;4936889;29;20482;-85
2023/05/22 06:30:00;;;;;;;110.80;58.53;;;14.00;99.90;;;;;;4937627;29;20756;-82
2023/05/22 06:32:27;;;;;;;95.47;54.53;;;14.00;99.90;;;;;;4936242;29;20591;-82
2023/05/22 06:34:54;;;;;;;97.83;53.63;;;14.00;99.90;;;;;;4936500;29;20189;-82
2023/05/22 06:37:21;;;;;;;99.63;55.13;;;14.00;99.90;;;;;;4935804;29;20185;-83
2023/05/22 06:39:47;;;;;;;108.33;56.10;;;14.00;99.90;;;;;;4935141;29;20260;-83
2023/05/22 06:42:12;;;;;;;104.27;56.73;;;14.10;99.90;;;;;;4935638;29;20621;-81
2023/05/22 06:44:38;;;;;;;102.90;57.37;;;14.20;99.90;;;;;;4937500;29;20172;-82
2023/05/22 06:47:04;;;;;;;114.57;57.33;;;14.20;99.90;;;;;;4936763;29;20197;-81
2023/05/22 06:49:30;;;;;;;107.87;57.10;;;14.30;99.90;;;;;;4935958;29;20169;-82
2023/05/22 06:51:55;;;;;;;113.90;59.07;;;14.30;99.90;;;;;;4936359;29;20212;-82
2023/05/22 06:54:21;;;;;;;113.73;58.70;;;14.40;99.90;;;;;;4937212;29;20254;-82
2023/05/22 06:56:48;;;;;;;95.97;56.63;;;14.40;99.90;;;;;;4936229;29;20238;-82
2023/05/22 06:59:14;;;;;;;100.13;55.47;;;14.50;99.90;;;;;;4938004;29;20167;-82
2023/05/22 07:01:40;;;;;;;93.67;56.27;;;14.70;99.90;;;;;;4937309;29;20182;-83
2023/05/22 07:04:07;;;;;;;91.00;54.40;;;14.70;99.90;;;;;;4937565;29;20184;-81
2023/05/22 07:06:37;;;;;;;89.70;54.30;;;14.80;99.90;;;;;;4936241;29;20199;-81
2023/05/22 07:09:04;;;;;;;90.00;54.50;;;14.60;99.90;;;;;;4938071;29;20675;-81
2023/05/22 07:11:31;;;;;;;90.93;53.83;;;14.50;99.90;;;;;;4937507;29;20567;-81
2023/05/22 07:13:56;;;;;;;83.37;52.80;;;14.50;99.90;;;;;;4937213;29;20179;-82
2023/05/22 07:16:22;;;;;;;86.93;54.17;;;14.50;99.90;;;;;;4936065;29;20251;-83
2023/05/22 07:18:48;;;;;;;75.90;50.23;;;14.50;99.90;;;;;;4935937;29;20173;-81
2023/05/22 07:21:14;;;;;;;75.13;48.43;;;14.60;99.90;;;;;;4937514;29;20169;-82
2023/05/22 07:23:39;;;;;;;76.80;50.13;;;14.70;99.90;;;;;;4937661;29;20700;-82
2023/05/22 07:26:06;;;;;;;75.87;49.53;;;14.70;99.90;;;;;;4936750;29;20935;-83
2023/05/22 07:28:32;;;;;;;72.10;48.87;;;14.60;99.90;;;;;;4968298;28;20227;-82
2023/05/22 07:30:58;;;;;;;88.23;54.17;;;14.70;99.90;;;;;;4942565;29;20731;-82
2023/05/22 07:33:24;;;;;;;103.30;64.50;;;14.80;99.90;;;;;;4935692;29;20200;-82
2023/05/22 07:35:51;;;;;;;85.10;52.07;;;14.80;99.90;;;;;;4936691;29;20184;-82
2023/05/22 07:38:19;;;;;;;87.10;54.57;;;14.60;99.90;;;;;;4937364;29;20658;-84
2023/05/22 07:40:45;;;;;;;82.93;53.07;;;14.70;99.90;;;;;;4937859;29;20188;-84
2023/05/22 07:43:11;;;;;;;86.47;52.23;;;14.70;99.90;;;;;;4939530;29;20556;-85
2023/05/22 07:45:38;;;;;;;88.73;53.80;;;14.70;99.90;;;;;;4938980;29;20279;-85
2023/05/22 07:48:04;;;;;;;81.17;52.30;;;14.80;99.90;;;;;;4941865;29;20735;-85
2023/05/22 07:50:31;;;;;;;87.80;53.60;;;14.80;99.90;;;;;;4937498;29;20223;-84
2023/05/22 07:52:57;;;;;;;88.00;53.60;;;14.80;99.90;;;;;;4945478;29;20173;-85
2023/05/22 07:55:23;;;;;;;91.33;54.37;;;14.90;99.90;;;;;;4944139;29;20208;-82
2023/05/22 07:57:50;;;;;;;85.57;52.70;;;14.90;99.90;;;;;;4942862;29;20173;-82
2023/05/22 08:00:16;;;;;;;85.60;53.90;;;15.00;99.90;;;;;;4945979;29;20575;-83
2023/05/22 08:02:42;;;;;;;83.50;53.30;;;15.10;99.90;;;;;;4946296;29;20734;-83
2023/05/22 08:05:08;;;;;;;74.87;49.57;;;15.20;99.90;;;;;;4946025;29;20193;-82
2023/05/22 08:07:35;;;;;;;82.13;52.37;;;15.30;99.90;;;;;;4956236;29;20278;-82
2023/05/22 08:10:11;;;;;;;83.00;54.10;;;15.20;99.90;;;;;;4957044;28;20235;-80
2023/05/22 08:12:37;;;;;;;73.80;50.50;;;15.20;99.90;;;;;;4957388;28;20181;-82
2023/05/22 08:15:05;;;;;;;70.50;48.87;;;15.20;99.90;;;;;;4950537;28;20181;-82
2023/05/22 08:17:32;;;;;;;73.67;48.93;;;15.20;99.90;;;;;;4947776;29;20551;-82
2023/05/22 08:20:20;;;;;;;73.53;49.13;;;15.10;99.90;;;;;;4941620;29;20181;-83
2023/05/22 08:22:53;;;;;;;71.93;47.10;;;15.30;99.90;;;;;;4937463;29;20211;-83
2023/05/22 08:25:20;;;;;;;65.60;45.17;;;15.10;99.90;;;;;;4950147;29;20213;-82
2023/05/22 08:27:45;;;;;;;69.40;46.53;;;15.10;99.90;;;;;;4954313;29;20184;-82
2023/05/22 08:30:11;;;;;;;70.57;44.63;;;14.90;99.90;;;;;;4958149;28;20209;-83
2023/05/22 08:32:37;;;;;;;62.60;44.90;;;15.00;99.90;;;;;;4946140;29;20313;-83
2023/05/22 08:35:06;;;;;;;68.10;45.53;;;15.00;99.90;;;;;;4937734;29;20256;-83
2023/05/22 08:37:32;;;;;;;61.97;43.70;;;15.10;99.90;;;;;;4936150;29;20176;-82
2023/05/22 08:40:10;;;;;;;67.27;45.70;;;15.00;99.90;;;;;;4936851;29;20590;-85
2023/05/22 08:42:37;;;;;;;57.83;43.13;;;14.90;99.90;;;;;;4939640;29;20180;-86
2023/05/22 08:45:05;;;;;;;67.87;44.47;;;14.90;99.90;;;;;;4921661;29;20173;-82
2023/05/22 08:47:35;;;;;;;61.40;42.37;;;15.00;99.90;;;;;;4936899;29;20207;-82
2023/05/22 08:50:01;;;;;;;56.10;39.90;;;15.00;99.90;;;;;;4937128;29;20226;-81
2023/05/22 08:52:58;;;;;;;54.97;40.33;;;15.10;99.90;;;;;;4940186;29;20180;-85
2023/05/22 08:55:24;;;;;;;54.43;40.17;;;15.30;99.90;;;;;;4949031;29;20185;-83
2023/05/22 08:57:52;;;;;;;55.70;38.60;;;15.60;99.90;;;;;;4988175;28;20225;-83
2023/05/22 09:00:20;;;;;;;57.53;39.67;;;15.50;99.90;;;;;;4949577;29;20197;-84
2023/05/22 09:02:47;;;;;;;53.70;37.63;;;15.40;99.90;;;;;;4940055;29;20173;-83
2023/05/22 09:05:15;;;;;;;53.97;40.03;;;15.40;99.90;;;;;;4978899;28;20193;-84
2023/05/22 09:07:42;;;;;;;54.90;38.00;;;15.40;99.90;;;;;;4972238;28;20181;-82
2023/05/22 09:10:08;;;;;;;58.97;41.20;;;15.40;99.90;;;;;;4940476;29;20219;-83
2023/05/22 09:12:34;;;;;;;57.73;42.13;;;15.30;99.90;;;;;;4941635;29;20173;-82
2023/05/22 09:15:10;;;;;;;56.63;42.13;;;15.30;99.90;;;;;;4941482;28;20169;-83
2023/05/22 09:17:40;;;;;;;51.93;39.90;;;15.30;99.90;;;;;;4961414;28;20165;-83
2023/05/22 09:20:06;;;;;;;55.20;40.40;;;15.20;99.90;;;;;;4947025;29;20177;-83
2023/05/22 09:22:39;;;;;;;54.83;42.47;;;15.30;99.90;;;;;;4948344;29;20641;-83
2023/05/22 09:25:18;;;;;;;53.67;41.93;;;15.40;99.90;;;;;;4974005;28;20236;-85
2023/05/22 09:27:49;;;;;;;52.93;39.67;;;15.50;99.90;;;;;;4939812;29;20183;-83
2023/05/22 09:30:21;;;;;;;53.77;40.83;;;15.50;99.90;;;;;;4938055;29;20293;-82
2023/05/22 09:32:50;;;;;;;56.07;40.60;;;15.30;99.90;;;;;;4939687;29;20184;-83
2023/05/22 09:35:18;;;;;;;50.67;40.57;;;15.30;99.90;;;;;;4938026;29;20199;-82
2023/05/22 09:37:45;;;;;;;56.97;42.07;;;15.40;99.90;;;;;;4938905;29;20209;-82
2023/05/22 09:40:12;;;;;;;58.40;40.50;;;15.30;99.90;;;;;;4939583;29;20533;-83
2023/05/22 09:42:42;;;;;;;54.07;41.40;;;15.30;99.90;;;;;;4939391;29;20181;-84
2023/05/22 09:45:09;;;;;;;54.50;41.53;;;15.50;99.90;;;;;;4939342;29;20173;-82
2023/05/22 09:47:35;;;;;;;51.57;41.80;;;15.50;99.90;;;;;;4937713;29;20359;-82
2023/05/22 09:50:08;;;;;;;56.60;41.23;;;15.50;99.90;;;;;;4937657;29;20316;-84
2023/05/22 09:52:38;;;;;;;57.87;41.83;;;15.60;99.90;;;;;;4939444;29;20222;-83
2023/05/22 09:55:09;;;;;;;65.57;42.53;;;15.60;99.90;;;;;;4938677;29;20233;-81
2023/05/22 09:57:43;;;;;;;60.00;41.00;;;15.60;99.90;;;;;;4939436;29;20176;-83
2023/05/22 10:00:18;;;;;;;59.07;42.20;;;15.70;99.90;;;;;;4938740;29;20204;-82
2023/05/22 10:02:47;;;;;;;59.03;42.47;;;15.70;99.90;;;;;;4938169;29;20271;-81
2023/05/22 10:05:22;;;;;;;59.13;42.60;;;15.70;99.90;;;;;;4940344;29;20552;-83
2023/05/22 10:07:55;;;;;;;61.73;45.07;;;15.90;99.90;;;;;;4938802;29;20176;-81
2023/05/22 10:10:23;;;;;;;63.23;44.70;;;16.00;99.90;;;;;;4939771;29;20209;-82
2023/05/22 10:13:04;;;;;;;67.23;47.07;;;16.20;99.90;;;;;;4945519;29;20264;-82
2023/05/22 10:15:36;;;;;;;59.33;41.77;;;16.30;99.90;;;;;;4951051;29;20189;-83
2023/05/22 10:18:04;;;;;;;60.57;41.87;;;16.50;99.90;;;;;;4950204;29;20612;-84
2023/05/22 10:20:30;;;;;;;52.80;40.80;;;16.60;99.90;;;;;;4944808;29;20228;-82
2023/05/22 10:22:56;;;;;;;57.27;42.63;;;16.60;99.90;;;;;;4942341;29;20224;-82
2023/05/22 10:25:22;;;;;;;60.87;44.27;;;16.60;99.90;;;;;;4941868;29;20185;-83
2023/05/22 10:27:52;;;;;;;54.73;41.10;;;16.50;99.90;;;;;;4952033;29;20252;-80
2023/05/22 10:30:35;;;;;;;56.80;43.37;;;16.60;99.90;;;;;;4953088;29;20229;-81
2023/05/22 10:33:13;;;;;;;55.90;41.23;;;16.50;99.90;;;;;;4952307;29;20174;-83
2023/05/22 10:35:59;;;;;;;57.53;41.93;;;16.50;99.90;;;;;;4948737;29;20177;-83
2023/05/22 10:38:49;;;;;;;61.17;44.87;;;16.70;99.90;;;;;;4941714;29;20169;-82
2023/05/22 10:41:16;;;;;;;68.10;44.53;;;16.60;99.90;;;;;;4946145;29;20180;-81
2023/05/22 10:43:43;;;;;;;67.57;45.93;;;16.80;99.90;;;;;;4947547;29;20175;-81
2023/05/22 10:46:11;;;;;;;61.30;44.90;;;17.00;99.90;;;;;;4947990;29;20177;-83
2023/05/22 10:48:47;;;;;;;63.23;45.20;;;17.10;99.90;;;;;;4944041;29;20193;-83
2023/05/22 10:51:18;;;;;;;63.80;44.50;;;17.00;99.90;;;;;;4977332;28;20683;-82
2023/05/22 10:53:51;;;;;;;61.23;43.30;;;16.90;99.90;;;;;;4939002;29;20634;-82
2023/05/22 10:56:18;;;;;;;54.97;40.53;;;17.00;99.90;;;;;;4940424;29;20189;-82
2023/05/22 10:58:55;;;;;;;60.20;42.80;;;17.20;99.90;;;;;;4939823;29;20169;-83
2023/05/22 11:01:23;;;;;;;54.57;40.70;;;17.00;99.90;;;;;;4941923;29;20679;-85
2023/05/22 11:03:54;;;;;;;61.73;42.50;;;17.00;99.90;;;;;;4938794;29;20249;-84
2023/05/22 11:06:36;;;;;;;59.37;42.63;;;16.90;99.90;;;;;;4938975;29;20198;-83
2023/05/22 11:09:44;;;;;;;58.80;41.83;;;17.00;99.90;;;;;;4940883;29;20219;-83
2023/05/22 11:12:27;;;;;;;55.63;39.60;;;16.90;99.90;;;;;;4938447;29;20170;-82
2023/05/22 11:14:58;;;;;;;55.83;39.80;;;16.90;99.90;;;;;;4937176;29;20181;-84
2023/05/22 11:17:31;;;;;;;57.57;41.00;;;17.00;99.90;;;;;;4936402;29;20169;-83
2023/05/22 11:20:04;;;;;;;60.17;40.10;;;17.10;99.90;;;;;;4937391;29;20181;-83
2023/05/22 11:22:43;;;;;;;57.90;40.17;;;17.30;99.90;;;;;;4936206;29;20176;-83
2023/05/22 11:25:16;;;;;;;61.73;40.87;;;17.20;99.90;;;;;;4937470;29;20182;-82
2023/05/22 11:27:43;;;;;;;60.50;41.63;;;17.10;99.90;;;;;;4946087;28;20168;-83
2023/05/22 11:30:10;;;;;;;53.37;39.63;;;17.00;99.90;;;;;;4958726;28;20213;-82
2023/05/22 11:32:38;;;;;;;58.87;39.57;;;17.10;99.90;;;;;;4989353;28;20169;-83
2023/05/22 11:35:04;;;;;;;57.27;41.63;;;17.00;99.90;;;;;;4948671;29;20215;-83
2023/05/22 11:37:37;;;;;;;62.20;41.63;;;17.00;99.90;;;;;;4946435;29;20583;-84
2023/05/22 11:40:24;;;;;;;57.00;41.07;;;17.30;99.90;;;;;;4942323;29;20165;-83
2023/05/22 11:43:02;;;;;;;59.13;41.53;;;17.40;99.90;;;;;;4967913;28;20176;-82
2023/05/22 11:45:28;;;;;;;58.83;41.40;;;17.40;99.90;;;;;;4937349;29;20173;-83
2023/05/22 11:47:54;;;;;;;56.40;40.40;;;17.30;99.90;;;;;;4937628;29;20200;-85
2023/05/22 11:50:20;;;;;;;52.40;40.13;;;17.30;99.90;;;;;;4936974;29;20268;-84
2023/05/22 11:52:46;;;;;;;59.73;39.73;;;17.30;99.90;;;;;;4937696;29;20609;-82
2023/05/22 11:55:13;;;;;;;55.13;41.13;;;17.20;99.90;;;;;;4942212;29;20184;-82
2023/05/22 11:57:39;;;;;;;53.93;41.17;;;17.20;99.90;;;;;;4959619;28;20303;-81
2023/05/22 12:00:07;;;;;;;53.67;40.40;;;17.00;99.90;;;;;;4950449;29;20190;-83
2023/05/22 12:02:33;;;;;;;59.70;44.37;;;16.90;99.90;;;;;;4944350;29;20185;-83
2023/05/22 12:04:59;;;;;;;50.93;38.17;;;17.00;99.90;;;;;;4937960;29;20289;-83
2023/05/22 12:07:26;;;;;;;46.80;37.10;;;17.10;99.90;;;;;;4935936;29;20201;-82
2023/05/22 12:09:54;;;;;;;48.23;37.10;;;17.10;99.90;;;;;;4937752;29;20202;-84
2023/05/22 12:12:20;;;;;;;45.10;35.73;;;17.30;99.90;;;;;;4939589;29;20225;-84
2023/05/22 12:14:47;;;;;;;44.27;36.63;;;17.30;99.90;;;;;;4937870;29;20177;-82
2023/05/22 12:17:15;;;;;;;46.07;36.87;;;17.30;99.90;;;;;;4948389;29;20185;-83
2023/05/22 12:19:42;;;;;;;51.60;36.93;;;17.40;99.90;;;;;;4953731;29;20160;-81
2023/05/22 12:22:09;;;;;;;51.57;36.73;;;17.50;99.90;;;;;;4944812;29;20185;-83
2023/05/22 12:24:45;;;;;;;56.83;45.40;;;17.50;99.90;;;;;;4944110;29;20209;-83
2023/05/22 12:27:13;;;;;;;46.10;36.47;;;17.30;99.90;;;;;;4968684;28;20263;-81
2023/05/22 12:29:41;;;;;;;45.93;37.50;;;17.20;99.90;;;;;;4935535;29;20207;-82
2023/05/22 12:32:12;;;;;;;49.73;38.10;;;17.20;99.90;;;;;;4937512;29;20261;-82
2023/05/22 12:34:43;;;;;;;42.60;34.20;;;17.40;99.90;;;;;;4944041;29;20231;-82